sensor_id;sensor_type;location;lat;lon;timestamp;P1;durP1;ratioP1;P2;durP2;ratioP2
1475;SDS011;730;48.870;12.542;2023-08-07T00:01:00;3.53;;;1.33;;
1475;SDS011;730;48.870;12.542;2023-08-07T00:03:26;2.37;;;1.50;;
1475;SDS011;730;48.870;12.542;2023-08-07T00:05:52;2.60;;;1.40;;
1475;SDS011;730;48.870;12.542;2023-08-07T00:08:18;2.80;;;1.07;;
1475;SDS011;730;48.870;12.542;2023-08-07T00:10:44;2.10;;;1.50;;
1475;SDS011;730;48.870;12.542;2023-08-07T00:13:10;2.53;;;1.30;;
1475;SDS011;730;48.870;12.542;2023-08-07T00:15:39;2.27;;;1.33;;
1475;SDS011;730;48.870;12.542;2023-08-07T00:18:05;2.13;;;1.20;;
1475;SDS011;730;48.870;12.542;2023-08-07T00:20:31;2.20;;;1.37;;
1475;SDS011;730;48.870;12.542;2023-08-07T00:22:57;2.40;;;1.20;;
1475;SDS011;730;48.870;12.542;2023-08-07T00:25:24;3.10;;;1.17;;
1475;SDS011;730;48.870;12.542;2023-08-07T00:27:50;3.23;;;1.20;;
1475;SDS011;730;48.870;12.542;2023-08-07T00:30:16;1.70;;;1.00;;
1475;SDS011;730;48.870;12.542;2023-08-07T00:32:42;2.67;;;1.37;;
1475;SDS011;730;48.870;12.542;2023-08-07T00:35:08;1.90;;;1.20;;
1475;SDS011;730;48.870;12.542;2023-08-07T00:37:34;1.30;;;0.90;;
1475;SDS011;730;48.870;12.542;2023-08-07T00:40:01;1.83;;;1.53;;
1475;SDS011;730;48.870;12.542;2023-08-07T00:42:27;1.97;;;0.70;;
1475;SDS011;730;48.870;12.542;2023-08-07T00:44:53;1.93;;;1.30;;
1475;SDS011;730;48.870;12.542;2023-08-07T00:47:19;1.50;;;0.90;;
1475;SDS011;730;48.870;12.542;2023-08-07T00:49:46;1.40;;;0.93;;
1475;SDS011;730;48.870;12.542;2023-08-07T00:52:13;5.33;;;1.00;;
1475;SDS011;730;48.870;12.542;2023-08-07T00:54:39;3.13;;;1.00;;
1475;SDS011;730;48.870;12.542;2023-08-07T00:57:12;2.33;;;1.10;;
1475;SDS011;730;48.870;12.542;2023-08-07T00:59:42;2.40;;;0.97;;
1475;SDS011;730;48.870;12.542;2023-08-07T01:02:09;2.60;;;0.90;;
1475;SDS011;730;48.870;12.542;2023-08-07T01:04:37;2.07;;;0.83;;
1475;SDS011;730;48.870;12.542;2023-08-07T01:07:04;1.50;;;0.80;;
1475;SDS011;730;48.870;12.542;2023-08-07T01:09:30;3.50;;;1.23;;
1475;SDS011;730;48.870;12.542;2023-08-07T01:12:16;2.00;;;1.20;;
1475;SDS011;730;48.870;12.542;2023-08-07T01:14:52;1.40;;;0.90;;
1475;SDS011;730;48.870;12.542;2023-08-07T01:17:23;1.17;;;0.80;;
1475;SDS011;730;48.870;12.542;2023-08-07T01:19:51;1.40;;;0.80;;
1475;SDS011;730;48.870;12.542;2023-08-07T01:22:20;1.77;;;0.70;;
1475;SDS011;730;48.870;12.542;2023-08-07T01:24:47;1.30;;;0.70;;
1475;SDS011;730;48.870;12.542;2023-08-07T01:27:19;1.40;;;0.80;;
1475;SDS011;730;48.870;12.542;2023-08-07T01:35:29;3.57;;;0.70;;
1475;SDS011;730;48.870;12.542;2023-08-07T01:38:00;1.40;;;0.60;;
1475;SDS011;730;48.870;12.542;2023-08-07T01:40:28;1.57;;;0.90;;
1475;SDS011;730;48.870;12.542;2023-08-07T01:42:54;1.10;;;0.63;;
1475;SDS011;730;48.870;12.542;2023-08-07T01:45:24;1.50;;;0.70;;
1475;SDS011;730;48.870;12.542;2023-08-07T02:09:50;1.03;;;0.67;;
1475;SDS011;730;48.870;12.542;2023-08-07T02:12:16;1.67;;;0.80;;
1475;SDS011;730;48.870;12.542;2023-08-07T02:14:52;2.10;;;0.63;;
1475;SDS011;730;48.870;12.542;2023-08-07T02:17:20;1.50;;;0.60;;
1475;SDS011;730;48.870;12.542;2023-08-07T02:19:48;2.30;;;0.67;;
1475;SDS011;730;48.870;12.542;2023-08-07T02:22:14;1.73;;;0.70;;
1475;SDS011;730;48.870;12.542;2023-08-07T02:24:40;1.00;;;0.60;;
1475;SDS011;730;48.870;12.542;2023-08-07T02:27:07;1.70;;;0.83;;
1475;SDS011;730;48.870;12.542;2023-08-07T02:29:33;1.27;;;0.63;;
1475;SDS011;730;48.870;12.542;2023-08-07T02:32:01;1.13;;;0.67;;
1475;SDS011;730;48.870;12.542;2023-08-07T02:34:31;1.10;;;0.60;;
1475;SDS011;730;48.870;12.542;2023-08-07T02:36:57;1.30;;;0.80;;
1475;SDS011;730;48.870;12.542;2023-08-07T02:39:24;1.70;;;0.70;;
1475;SDS011;730;48.870;12.542;2023-08-07T02:41:52;1.20;;;0.70;;
1475;SDS011;730;48.870;12.542;2023-08-07T02:44:18;1.70;;;1.00;;
1475;SDS011;730;48.870;12.542;2023-08-07T02:46:45;1.17;;;0.67;;
1475;SDS011;730;48.870;12.542;2023-08-07T02:49:12;1.30;;;0.83;;
1475;SDS011;730;48.870;12.542;2023-08-07T02:51:38;1.30;;;0.90;;
1475;SDS011;730;48.870;12.542;2023-08-07T02:54:04;1.20;;;0.70;;
1475;SDS011;730;48.870;12.542;2023-08-07T02:56:30;1.87;;;0.83;;
1475;SDS011;730;48.870;12.542;2023-08-07T02:58:56;2.60;;;0.50;;
1475;SDS011;730;48.870;12.542;2023-08-07T03:01:23;1.23;;;0.60;;
1475;SDS011;730;48.870;12.542;2023-08-07T03:03:50;1.10;;;0.60;;
1475;SDS011;730;48.870;12.542;2023-08-07T03:06:16;2.10;;;0.80;;
1475;SDS011;730;48.870;12.542;2023-08-07T03:08:42;1.30;;;0.70;;
1475;SDS011;730;48.870;12.542;2023-08-07T03:11:08;1.83;;;1.00;;
1475;SDS011;730;48.870;12.542;2023-08-07T03:13:34;1.00;;;0.70;;
1475;SDS011;730;48.870;12.542;2023-08-07T03:16:04;1.50;;;0.83;;
1475;SDS011;730;48.870;12.542;2023-08-07T03:18:31;1.10;;;0.77;;
1475;SDS011;730;48.870;12.542;2023-08-07T03:21:01;1.00;;;0.60;;
1475;SDS011;730;48.870;12.542;2023-08-07T03:23:27;1.33;;;0.67;;
1475;SDS011;730;48.870;12.542;2023-08-07T03:28:34;1.33;;;0.93;;
1475;SDS011;730;48.870;12.542;2023-08-07T03:31:01;1.40;;;0.80;;
1475;SDS011;730;48.870;12.542;2023-08-07T03:33:27;1.30;;;0.90;;
1475;SDS011;730;48.870;12.542;2023-08-07T03:35:53;2.27;;;0.90;;
1475;SDS011;730;48.870;12.542;2023-08-07T03:38:20;2.37;;;1.00;;
1475;SDS011;730;48.870;12.542;2023-08-07T03:40:46;1.97;;;1.00;;
1475;SDS011;730;48.870;12.542;2023-08-07T03:43:12;1.13;;;0.73;;
1475;SDS011;730;48.870;12.542;2023-08-07T03:45:38;1.20;;;0.60;;
1475;SDS011;730;48.870;12.542;2023-08-07T03:48:05;1.87;;;0.60;;
1475;SDS011;730;48.870;12.542;2023-08-07T03:50:31;1.13;;;0.83;;
1475;SDS011;730;48.870;12.542;2023-08-07T03:53:00;1.23;;;0.73;;
1475;SDS011;730;48.870;12.542;2023-08-07T03:55:26;2.90;;;1.10;;
1475;SDS011;730;48.870;12.542;2023-08-07T03:57:52;1.23;;;0.83;;
1475;SDS011;730;48.870;12.542;2023-08-07T04:00:18;1.50;;;0.83;;
1475;SDS011;730;48.870;12.542;2023-08-07T04:02:46;1.43;;;0.90;;
1475;SDS011;730;48.870;12.542;2023-08-07T04:05:12;1.70;;;1.00;;
1475;SDS011;730;48.870;12.542;2023-08-07T04:07:38;1.13;;;0.70;;
1475;SDS011;730;48.870;12.542;2023-08-07T04:10:04;1.73;;;1.00;;
1475;SDS011;730;48.870;12.542;2023-08-07T04:12:43;2.47;;;0.93;;
1475;SDS011;730;48.870;12.542;2023-08-07T04:15:09;1.63;;;0.93;;
1475;SDS011;730;48.870;12.542;2023-08-07T04:17:35;1.83;;;0.90;;
1475;SDS011;730;48.870;12.542;2023-08-07T04:20:01;1.37;;;0.80;;
1475;SDS011;730;48.870;12.542;2023-08-07T04:22:29;1.67;;;1.00;;
1475;SDS011;730;48.870;12.542;2023-08-07T04:24:55;1.53;;;1.00;;
1475;SDS011;730;48.870;12.542;2023-08-07T04:27:21;2.00;;;0.83;;
1475;SDS011;730;48.870;12.542;2023-08-07T04:29:47;1.70;;;1.00;;
1475;SDS011;730;48.870;12.542;2023-08-07T04:32:13;1.40;;;1.00;;
1475;SDS011;730;48.870;12.542;2023-08-07T04:34:39;1.70;;;1.10;;
1475;SDS011;730;48.870;12.542;2023-08-07T04:37:05;1.67;;;1.10;;
1475;SDS011;730;48.870;12.542;2023-08-07T04:39:31;1.87;;;1.13;;
1475;SDS011;730;48.870;12.542;2023-08-07T04:41:57;1.53;;;1.23;;
1475;SDS011;730;48.870;12.542;2023-08-07T04:44:23;2.20;;;0.87;;
1475;SDS011;730;48.870;12.542;2023-08-07T04:46:49;2.17;;;1.07;;
1475;SDS011;730;48.870;12.542;2023-08-07T04:49:15;1.70;;;1.33;;
1475;SDS011;730;48.870;12.542;2023-08-07T04:51:41;2.47;;;1.20;;
1475;SDS011;730;48.870;12.542;2023-08-07T04:54:07;1.50;;;1.20;;
1475;SDS011;730;48.870;12.542;2023-08-07T04:56:34;1.37;;;1.13;;
1475;SDS011;730;48.870;12.542;2023-08-07T04:59:00;1.70;;;1.20;;
1475;SDS011;730;48.870;12.542;2023-08-07T05:01:27;2.53;;;1.57;;
1475;SDS011;730;48.870;12.542;2023-08-07T05:03:53;1.97;;;1.40;;
1475;SDS011;730;48.870;12.542;2023-08-07T05:06:19;1.90;;;1.50;;
1475;SDS011;730;48.870;12.542;2023-08-07T05:08:45;2.10;;;1.63;;
1475;SDS011;730;48.870;12.542;2023-08-07T05:11:11;1.50;;;1.20;;
1475;SDS011;730;48.870;12.542;2023-08-07T05:13:37;1.70;;;1.30;;
1475;SDS011;730;48.870;12.542;2023-08-07T05:16:03;1.40;;;1.03;;
1475;SDS011;730;48.870;12.542;2023-08-07T05:18:29;1.87;;;1.50;;
1475;SDS011;730;48.870;12.542;2023-08-07T05:20:56;1.83;;;1.40;;
1475;SDS011;730;48.870;12.542;2023-08-07T05:23:22;3.40;;;1.33;;
1475;SDS011;730;48.870;12.542;2023-08-07T05:25:48;2.10;;;1.20;;
1475;SDS011;730;48.870;12.542;2023-08-07T05:28:14;1.50;;;1.20;;
1475;SDS011;730;48.870;12.542;2023-08-07T05:30:40;2.17;;;1.40;;
1475;SDS011;730;48.870;12.542;2023-08-07T05:33:06;2.00;;;1.10;;
1475;SDS011;730;48.870;12.542;2023-08-07T05:35:32;2.73;;;1.30;;
1475;SDS011;730;48.870;12.542;2023-08-07T05:37:58;1.70;;;1.30;;
1475;SDS011;730;48.870;12.542;2023-08-07T05:40:27;2.30;;;1.10;;
1475;SDS011;730;48.870;12.542;2023-08-07T05:42:53;3.93;;;1.80;;
1475;SDS011;730;48.870;12.542;2023-08-07T05:45:19;2.30;;;1.47;;
1475;SDS011;730;48.870;12.542;2023-08-07T05:47:45;1.63;;;1.07;;
1475;SDS011;730;48.870;12.542;2023-08-07T05:50:18;1.30;;;1.13;;
1475;SDS011;730;48.870;12.542;2023-08-07T05:52:44;1.83;;;1.37;;
1475;SDS011;730;48.870;12.542;2023-08-07T05:55:11;2.13;;;1.20;;
1475;SDS011;730;48.870;12.542;2023-08-07T05:57:37;1.33;;;1.00;;
1475;SDS011;730;48.870;12.542;2023-08-07T06:00:03;2.03;;;1.20;;
1475;SDS011;730;48.870;12.542;2023-08-07T06:02:33;1.97;;;1.50;;
1475;SDS011;730;48.870;12.542;2023-08-07T06:05:02;2.60;;;1.30;;
1475;SDS011;730;48.870;12.542;2023-08-07T06:07:32;3.50;;;2.57;;
1475;SDS011;730;48.870;12.542;2023-08-07T06:09:58;2.07;;;1.30;;
1475;SDS011;730;48.870;12.542;2023-08-07T06:12:24;1.63;;;1.33;;
1475;SDS011;730;48.870;12.542;2023-08-07T06:14:51;1.80;;;1.30;;
1475;SDS011;730;48.870;12.542;2023-08-07T06:17:19;2.80;;;2.00;;
1475;SDS011;730;48.870;12.542;2023-08-07T06:19:46;3.10;;;1.50;;
1475;SDS011;730;48.870;12.542;2023-08-07T06:22:13;1.57;;;1.47;;
1475;SDS011;730;48.870;12.542;2023-08-07T06:24:39;2.43;;;1.60;;
1475;SDS011;730;48.870;12.542;2023-08-07T06:27:05;1.77;;;1.43;;
1475;SDS011;730;48.870;12.542;2023-08-07T06:29:31;4.37;;;1.90;;
1475;SDS011;730;48.870;12.542;2023-08-07T06:31:57;2.20;;;1.70;;
1475;SDS011;730;48.870;12.542;2023-08-07T06:34:23;1.60;;;1.23;;
1475;SDS011;730;48.870;12.542;2023-08-07T06:36:49;1.80;;;1.30;;
1475;SDS011;730;48.870;12.542;2023-08-07T06:39:15;1.77;;;1.40;;
1475;SDS011;730;48.870;12.542;2023-08-07T06:41:42;2.57;;;1.60;;
1475;SDS011;730;48.870;12.542;2023-08-07T06:44:08;1.70;;;1.53;;
1475;SDS011;730;48.870;12.542;2023-08-07T06:46:35;5.47;;;1.43;;
1475;SDS011;730;48.870;12.542;2023-08-07T06:49:01;2.23;;;1.60;;
1475;SDS011;730;48.870;12.542;2023-08-07T06:51:27;1.67;;;1.40;;
1475;SDS011;730;48.870;12.542;2023-08-07T06:53:55;1.80;;;1.30;;
1475;SDS011;730;48.870;12.542;2023-08-07T06:56:22;2.70;;;1.43;;
1475;SDS011;730;48.870;12.542;2023-08-07T06:58:48;3.57;;;1.50;;
1475;SDS011;730;48.870;12.542;2023-08-07T07:01:14;4.07;;;1.60;;
1475;SDS011;730;48.870;12.542;2023-08-07T07:03:40;2.30;;;1.47;;
1475;SDS011;730;48.870;12.542;2023-08-07T07:06:06;2.03;;;1.50;;
1475;SDS011;730;48.870;12.542;2023-08-07T07:08:33;2.20;;;1.33;;
1475;SDS011;730;48.870;12.542;2023-08-07T07:10:59;2.43;;;1.40;;
1475;SDS011;730;48.870;12.542;2023-08-07T07:13:25;4.50;;;1.47;;
1475;SDS011;730;48.870;12.542;2023-08-07T07:15:54;2.13;;;1.57;;
1475;SDS011;730;48.870;12.542;2023-08-07T07:18:20;2.83;;;1.40;;
1475;SDS011;730;48.870;12.542;2023-08-07T07:20:47;2.53;;;1.73;;
1475;SDS011;730;48.870;12.542;2023-08-07T07:23:15;2.57;;;1.80;;
1475;SDS011;730;48.870;12.542;2023-08-07T07:25:41;1.70;;;1.50;;
1475;SDS011;730;48.870;12.542;2023-08-07T07:28:07;2.03;;;1.40;;
1475;SDS011;730;48.870;12.542;2023-08-07T07:30:33;2.17;;;1.50;;
1475;SDS011;730;48.870;12.542;2023-08-07T07:32:59;2.90;;;1.90;;
1475;SDS011;730;48.870;12.542;2023-08-07T07:35:25;1.90;;;1.60;;
1475;SDS011;730;48.870;12.542;2023-08-07T07:38:00;2.10;;;1.53;;
1475;SDS011;730;48.870;12.542;2023-08-07T07:40:26;3.10;;;2.10;;
1475;SDS011;730;48.870;12.542;2023-08-07T07:42:52;2.93;;;1.90;;
1475;SDS011;730;48.870;12.542;2023-08-07T07:45:18;2.57;;;1.90;;
1475;SDS011;730;48.870;12.542;2023-08-07T07:47:44;2.13;;;1.70;;
1475;SDS011;730;48.870;12.542;2023-08-07T07:50:10;4.27;;;1.53;;
1475;SDS011;730;48.870;12.542;2023-08-07T07:52:38;2.90;;;2.10;;
1475;SDS011;730;48.870;12.542;2023-08-07T07:55:04;2.70;;;1.60;;
1475;SDS011;730;48.870;12.542;2023-08-07T07:57:30;2.60;;;1.90;;
1475;SDS011;730;48.870;12.542;2023-08-07T08:00:00;2.80;;;2.07;;
1475;SDS011;730;48.870;12.542;2023-08-07T08:02:27;2.30;;;1.60;;
1475;SDS011;730;48.870;12.542;2023-08-07T08:04:53;3.10;;;1.83;;
1475;SDS011;730;48.870;12.542;2023-08-07T08:07:20;1.97;;;1.50;;
1475;SDS011;730;48.870;12.542;2023-08-07T08:09:46;1.77;;;1.40;;
1475;SDS011;730;48.870;12.542;2023-08-07T08:12:13;3.20;;;1.60;;
1475;SDS011;730;48.870;12.542;2023-08-07T08:14:39;2.43;;;1.80;;
1475;SDS011;730;48.870;12.542;2023-08-07T08:17:05;1.80;;;1.53;;
1475;SDS011;730;48.870;12.542;2023-08-07T08:19:31;4.83;;;1.40;;
1475;SDS011;730;48.870;12.542;2023-08-07T08:21:57;2.50;;;1.40;;
1475;SDS011;730;48.870;12.542;2023-08-07T08:24:23;2.10;;;1.40;;
1475;SDS011;730;48.870;12.542;2023-08-07T08:26:49;2.67;;;1.60;;
1475;SDS011;730;48.870;12.542;2023-08-07T08:29:15;2.03;;;1.80;;
1475;SDS011;730;48.870;12.542;2023-08-07T08:31:41;2.23;;;1.33;;
1475;SDS011;730;48.870;12.542;2023-08-07T08:34:08;2.10;;;1.73;;
1475;SDS011;730;48.870;12.542;2023-08-07T08:36:34;2.60;;;1.50;;
1475;SDS011;730;48.870;12.542;2023-08-07T08:39:00;2.07;;;1.17;;
1475;SDS011;730;48.870;12.542;2023-08-07T08:41:26;1.73;;;1.47;;
1475;SDS011;730;48.870;12.542;2023-08-07T08:43:52;2.07;;;1.23;;
1475;SDS011;730;48.870;12.542;2023-08-07T08:46:20;6.90;;;1.90;;
1475;SDS011;730;48.870;12.542;2023-08-07T08:48:50;2.03;;;1.47;;
1475;SDS011;730;48.870;12.542;2023-08-07T08:51:17;3.77;;;1.27;;
1475;SDS011;730;48.870;12.542;2023-08-07T08:53:47;3.17;;;1.50;;
1475;SDS011;730;48.870;12.542;2023-08-07T08:56:16;2.67;;;1.20;;
1475;SDS011;730;48.870;12.542;2023-08-07T08:58:42;2.83;;;1.40;;
1475;SDS011;730;48.870;12.542;2023-08-07T09:01:08;1.53;;;1.10;;
1475;SDS011;730;48.870;12.542;2023-08-07T09:03:35;1.60;;;1.30;;
1475;SDS011;730;48.870;12.542;2023-08-07T09:06:01;2.30;;;1.70;;
1475;SDS011;730;48.870;12.542;2023-08-07T09:08:28;7.23;;;1.80;;
1475;SDS011;730;48.870;12.542;2023-08-07T09:10:55;2.60;;;1.77;;
1475;SDS011;730;48.870;12.542;2023-08-07T09:13:22;1.70;;;1.00;;
1475;SDS011;730;48.870;12.542;2023-08-07T09:15:51;3.43;;;1.83;;
1475;SDS011;730;48.870;12.542;2023-08-07T09:18:17;1.63;;;1.30;;
1475;SDS011;730;48.870;12.542;2023-08-07T09:20:47;2.40;;;1.10;;
1475;SDS011;730;48.870;12.542;2023-08-07T09:23:15;1.70;;;1.10;;
1475;SDS011;730;48.870;12.542;2023-08-07T09:25:44;2.67;;;1.57;;
1475;SDS011;730;48.870;12.542;2023-08-07T09:28:10;1.77;;;1.37;;
1475;SDS011;730;48.870;12.542;2023-08-07T09:30:37;1.90;;;1.40;;
1475;SDS011;730;48.870;12.542;2023-08-07T09:33:03;2.73;;;1.57;;
1475;SDS011;730;48.870;12.542;2023-08-07T09:35:30;1.83;;;1.30;;
1475;SDS011;730;48.870;12.542;2023-08-07T09:37:57;3.13;;;1.70;;
1475;SDS011;730;48.870;12.542;2023-08-07T09:40:23;2.23;;;1.57;;
1475;SDS011;730;48.870;12.542;2023-08-07T09:42:53;1.73;;;1.33;;
1475;SDS011;730;48.870;12.542;2023-08-07T09:45:23;2.87;;;1.17;;
1475;SDS011;730;48.870;12.542;2023-08-07T09:47:58;2.20;;;1.23;;
1475;SDS011;730;48.870;12.542;2023-08-07T09:50:33;2.43;;;1.30;;
1475;SDS011;730;48.870;12.542;2023-08-07T09:52:59;2.33;;;1.50;;
1475;SDS011;730;48.870;12.542;2023-08-07T09:55:26;2.10;;;1.20;;
1475;SDS011;730;48.870;12.542;2023-08-07T09:57:53;1.93;;;1.40;;
1475;SDS011;730;48.870;12.542;2023-08-07T10:00:20;1.63;;;1.10;;
1475;SDS011;730;48.870;12.542;2023-08-07T10:02:49;3.03;;;1.37;;
1475;SDS011;730;48.870;12.542;2023-08-07T10:05:16;2.50;;;1.40;;
1475;SDS011;730;48.870;12.542;2023-08-07T10:07:43;1.60;;;1.27;;
1475;SDS011;730;48.870;12.542;2023-08-07T10:10:09;3.33;;;1.47;;
1475;SDS011;730;48.870;12.542;2023-08-07T10:12:36;2.37;;;1.30;;
1475;SDS011;730;48.870;12.542;2023-08-07T10:15:03;2.90;;;1.30;;
1475;SDS011;730;48.870;12.542;2023-08-07T10:17:30;3.27;;;1.67;;
1475;SDS011;730;48.870;12.542;2023-08-07T10:19:57;2.93;;;1.37;;
1475;SDS011;730;48.870;12.542;2023-08-07T10:22:27;2.73;;;1.50;;
1475;SDS011;730;48.870;12.542;2023-08-07T10:24:57;2.13;;;1.30;;
1475;SDS011;730;48.870;12.542;2023-08-07T10:27:26;3.07;;;2.40;;
1475;SDS011;730;48.870;12.542;2023-08-07T10:29:56;2.37;;;1.53;;
1475;SDS011;730;48.870;12.542;2023-08-07T10:32:25;2.80;;;1.93;;
1475;SDS011;730;48.870;12.542;2023-08-07T10:34:53;2.10;;;1.13;;
1475;SDS011;730;48.870;12.542;2023-08-07T10:40:06;3.33;;;1.80;;
1475;SDS011;730;48.870;12.542;2023-08-07T10:45:34;3.00;;;1.60;;
1475;SDS011;730;48.870;12.542;2023-08-07T10:48:07;2.87;;;1.63;;
1475;SDS011;730;48.870;12.542;2023-08-07T10:50:35;2.43;;;1.77;;
1475;SDS011;730;48.870;12.542;2023-08-07T10:53:20;2.70;;;1.57;;
1475;SDS011;730;48.870;12.542;2023-08-07T10:55:58;2.93;;;1.80;;
1475;SDS011;730;48.870;12.542;2023-08-07T10:58:31;6.40;;;1.77;;
1475;SDS011;730;48.870;12.542;2023-08-07T11:03:48;2.30;;;1.30;;
1475;SDS011;730;48.870;12.542;2023-08-07T11:06:28;4.30;;;2.33;;
1475;SDS011;730;48.870;12.542;2023-08-07T11:09:03;2.13;;;1.60;;
1475;SDS011;730;48.870;12.542;2023-08-07T11:11:40;2.57;;;1.40;;
1475;SDS011;730;48.870;12.542;2023-08-07T11:14:15;2.67;;;1.40;;
1475;SDS011;730;48.870;12.542;2023-08-07T11:16:46;3.60;;;1.30;;
1475;SDS011;730;48.870;12.542;2023-08-07T11:19:14;2.27;;;1.57;;
1475;SDS011;730;48.870;12.542;2023-08-07T11:21:44;2.33;;;1.30;;
1475;SDS011;730;48.870;12.542;2023-08-07T11:24:13;2.50;;;1.30;;
1475;SDS011;730;48.870;12.542;2023-08-07T11:26:42;3.90;;;0.87;;
1475;SDS011;730;48.870;12.542;2023-08-07T11:29:10;2.40;;;1.17;;
1475;SDS011;730;48.870;12.542;2023-08-07T11:31:36;2.03;;;1.43;;
1475;SDS011;730;48.870;12.542;2023-08-07T11:34:02;2.30;;;0.93;;
1475;SDS011;730;48.870;12.542;2023-08-07T11:36:28;2.77;;;1.30;;
1475;SDS011;730;48.870;12.542;2023-08-07T11:38:55;2.30;;;1.37;;
1475;SDS011;730;48.870;12.542;2023-08-07T11:41:22;2.57;;;1.30;;
1475;SDS011;730;48.870;12.542;2023-08-07T11:43:48;1.83;;;1.30;;
1475;SDS011;730;48.870;12.542;2023-08-07T11:46:14;1.70;;;1.03;;
1475;SDS011;730;48.870;12.542;2023-08-07T11:48:41;2.10;;;1.07;;
1475;SDS011;730;48.870;12.542;2023-08-07T11:51:09;1.80;;;1.07;;
1475;SDS011;730;48.870;12.542;2023-08-07T11:53:36;2.33;;;1.17;;
1475;SDS011;730;48.870;12.542;2023-08-07T11:56:13;3.57;;;1.67;;
1475;SDS011;730;48.870;12.542;2023-08-07T11:58:40;3.83;;;1.40;;
1475;SDS011;730;48.870;12.542;2023-08-07T12:01:11;2.53;;;1.30;;
1475;SDS011;730;48.870;12.542;2023-08-07T12:03:51;3.33;;;1.20;;
1475;SDS011;730;48.870;12.542;2023-08-07T12:06:22;2.40;;;1.20;;
1475;SDS011;730;48.870;12.542;2023-08-07T12:08:55;2.53;;;1.10;;
1475;SDS011;730;48.870;12.542;2023-08-07T12:11:21;2.53;;;1.47;;
1475;SDS011;730;48.870;12.542;2023-08-07T12:13:48;3.80;;;1.20;;
1475;SDS011;730;48.870;12.542;2023-08-07T12:16:15;1.20;;;0.97;;
1475;SDS011;730;48.870;12.542;2023-08-07T12:18:45;2.30;;;1.27;;
1475;SDS011;730;48.870;12.542;2023-08-07T12:21:20;1.73;;;1.27;;
1475;SDS011;730;48.870;12.542;2023-08-07T12:23:49;2.00;;;1.20;;
1475;SDS011;730;48.870;12.542;2023-08-07T12:26:16;1.50;;;1.00;;
1475;SDS011;730;48.870;12.542;2023-08-07T12:28:43;1.80;;;1.00;;
1475;SDS011;730;48.870;12.542;2023-08-07T12:31:09;1.73;;;1.20;;
1475;SDS011;730;48.870;12.542;2023-08-07T12:33:35;1.17;;;0.80;;
1475;SDS011;730;48.870;12.542;2023-08-07T12:36:01;1.20;;;0.77;;
1475;SDS011;730;48.870;12.542;2023-08-07T12:38:28;2.23;;;1.17;;
1475;SDS011;730;48.870;12.542;2023-08-07T12:40:54;1.43;;;0.93;;
1475;SDS011;730;48.870;12.542;2023-08-07T12:43:20;1.83;;;1.07;;
1475;SDS011;730;48.870;12.542;2023-08-07T12:45:47;3.60;;;1.10;;
1475;SDS011;730;48.870;12.542;2023-08-07T12:48:13;1.73;;;0.83;;
1475;SDS011;730;48.870;12.542;2023-08-07T12:50:39;1.70;;;1.33;;
1475;SDS011;730;48.870;12.542;2023-08-07T12:53:06;1.70;;;1.20;;
1475;SDS011;730;48.870;12.542;2023-08-07T12:55:33;2.00;;;1.00;;
1475;SDS011;730;48.870;12.542;2023-08-07T12:57:59;1.70;;;1.10;;
1475;SDS011;730;48.870;12.542;2023-08-07T13:00:25;2.73;;;0.80;;
1475;SDS011;730;48.870;12.542;2023-08-07T13:02:52;1.83;;;1.07;;
1475;SDS011;730;48.870;12.542;2023-08-07T13:05:19;1.80;;;0.97;;
1475;SDS011;730;48.870;12.542;2023-08-07T13:07:46;1.13;;;0.60;;
1475;SDS011;730;48.870;12.542;2023-08-07T13:10:17;1.30;;;0.73;;
1475;SDS011;730;48.870;12.542;2023-08-07T13:12:44;1.70;;;1.07;;
1475;SDS011;730;48.870;12.542;2023-08-07T13:15:13;1.67;;;0.90;;
1475;SDS011;730;48.870;12.542;2023-08-07T13:17:40;1.87;;;1.07;;
1475;SDS011;730;48.870;12.542;2023-08-07T13:20:07;1.43;;;0.90;;
1475;SDS011;730;48.870;12.542;2023-08-07T13:22:35;1.60;;;0.93;;
1475;SDS011;730;48.870;12.542;2023-08-07T13:25:01;1.43;;;0.90;;
1475;SDS011;730;48.870;12.542;2023-08-07T13:27:30;1.70;;;0.83;;
1475;SDS011;730;48.870;12.542;2023-08-07T13:29:57;1.40;;;1.10;;
1475;SDS011;730;48.870;12.542;2023-08-07T13:32:23;1.87;;;1.00;;
1475;SDS011;730;48.870;12.542;2023-08-07T13:34:49;1.17;;;0.80;;
1475;SDS011;730;48.870;12.542;2023-08-07T13:37:17;2.00;;;0.97;;
1475;SDS011;730;48.870;12.542;2023-08-07T13:39:43;2.03;;;1.00;;
1475;SDS011;730;48.870;12.542;2023-08-07T13:42:09;1.40;;;0.80;;
1475;SDS011;730;48.870;12.542;2023-08-07T13:44:38;2.07;;;0.97;;
1475;SDS011;730;48.870;12.542;2023-08-07T13:47:05;2.47;;;1.10;;
1475;SDS011;730;48.870;12.542;2023-08-07T13:49:32;3.00;;;1.20;;
1475;SDS011;730;48.870;12.542;2023-08-07T13:52:03;1.87;;;1.10;;
1475;SDS011;730;48.870;12.542;2023-08-07T13:54:29;1.43;;;1.00;;
1475;SDS011;730;48.870;12.542;2023-08-07T13:56:55;1.60;;;1.10;;
1475;SDS011;730;48.870;12.542;2023-08-07T13:59:21;3.17;;;1.00;;
1475;SDS011;730;48.870;12.542;2023-08-07T14:01:47;3.00;;;1.00;;
1475;SDS011;730;48.870;12.542;2023-08-07T14:04:14;2.27;;;1.20;;
1475;SDS011;730;48.870;12.542;2023-08-07T14:06:41;1.40;;;0.87;;
1475;SDS011;730;48.870;12.542;2023-08-07T14:09:09;1.77;;;1.00;;
1475;SDS011;730;48.870;12.542;2023-08-07T14:11:35;1.60;;;1.17;;
1475;SDS011;730;48.870;12.542;2023-08-07T14:14:02;2.07;;;1.20;;
1475;SDS011;730;48.870;12.542;2023-08-07T14:16:28;1.70;;;1.20;;
1475;SDS011;730;48.870;12.542;2023-08-07T14:18:55;1.70;;;1.07;;
1475;SDS011;730;48.870;12.542;2023-08-07T14:21:21;2.30;;;0.90;;
1475;SDS011;730;48.870;12.542;2023-08-07T14:23:47;3.53;;;1.00;;
1475;SDS011;730;48.870;12.542;2023-08-07T14:26:15;1.60;;;1.03;;
1475;SDS011;730;48.870;12.542;2023-08-07T14:28:41;2.10;;;1.40;;
1475;SDS011;730;48.870;12.542;2023-08-07T14:31:08;2.27;;;1.10;;
1475;SDS011;730;48.870;12.542;2023-08-07T14:33:35;3.40;;;1.30;;
1475;SDS011;730;48.870;12.542;2023-08-07T14:36:01;1.83;;;0.80;;
1475;SDS011;730;48.870;12.542;2023-08-07T14:38:28;2.20;;;0.80;;
1475;SDS011;730;48.870;12.542;2023-08-07T14:40:54;1.73;;;1.10;;
1475;SDS011;730;48.870;12.542;2023-08-07T14:43:21;1.40;;;0.97;;
1475;SDS011;730;48.870;12.542;2023-08-07T14:45:48;2.20;;;1.50;;
1475;SDS011;730;48.870;12.542;2023-08-07T14:48:24;2.13;;;1.10;;
1475;SDS011;730;48.870;12.542;2023-08-07T14:50:50;2.60;;;1.13;;
1475;SDS011;730;48.870;12.542;2023-08-07T14:53:16;1.30;;;1.17;;
1475;SDS011;730;48.870;12.542;2023-08-07T14:55:43;1.53;;;0.83;;
1475;SDS011;730;48.870;12.542;2023-08-07T14:58:10;1.40;;;0.90;;
1475;SDS011;730;48.870;12.542;2023-08-07T15:00:37;1.40;;;0.90;;
1475;SDS011;730;48.870;12.542;2023-08-07T15:03:03;1.43;;;1.03;;
1475;SDS011;730;48.870;12.542;2023-08-07T15:05:29;2.17;;;1.00;;
1475;SDS011;730;48.870;12.542;2023-08-07T15:07:55;1.40;;;1.10;;
1475;SDS011;730;48.870;12.542;2023-08-07T15:10:21;2.60;;;1.23;;
1475;SDS011;730;48.870;12.542;2023-08-07T15:12:47;1.40;;;1.00;;
1475;SDS011;730;48.870;12.542;2023-08-07T15:15:13;4.00;;;1.00;;
1475;SDS011;730;48.870;12.542;2023-08-07T15:17:39;1.83;;;1.10;;
1475;SDS011;730;48.870;12.542;2023-08-07T15:20:05;2.07;;;0.80;;
1475;SDS011;730;48.870;12.542;2023-08-07T15:22:32;1.00;;;0.60;;
1475;SDS011;730;48.870;12.542;2023-08-07T15:24:58;1.77;;;0.90;;
1475;SDS011;730;48.870;12.542;2023-08-07T15:27:24;1.37;;;0.53;;
1475;SDS011;730;48.870;12.542;2023-08-07T15:29:50;1.10;;;0.70;;
1475;SDS011;730;48.870;12.542;2023-08-07T15:32:16;1.13;;;0.73;;
1475;SDS011;730;48.870;12.542;2023-08-07T15:34:46;1.20;;;0.80;;
1475;SDS011;730;48.870;12.542;2023-08-07T15:37:13;2.03;;;1.10;;
1475;SDS011;730;48.870;12.542;2023-08-07T15:39:39;1.50;;;0.90;;
1475;SDS011;730;48.870;12.542;2023-08-07T15:42:06;1.67;;;1.13;;
1475;SDS011;730;48.870;12.542;2023-08-07T15:44:32;1.20;;;0.77;;
1475;SDS011;730;48.870;12.542;2023-08-07T15:46:59;1.70;;;1.00;;
1475;SDS011;730;48.870;12.542;2023-08-07T15:49:28;1.07;;;0.63;;
1475;SDS011;730;48.870;12.542;2023-08-07T15:51:54;1.00;;;0.70;;
1475;SDS011;730;48.870;12.542;2023-08-07T15:54:20;2.10;;;1.00;;